Etusivu
METAR-TAF:

METAR-TAF

Lentoasemat :

Oxford, Englanti

Leveyspiiri: 51-50-13N, Pituuspiiri: 1-19-12W, korkeus merenpinnasta: 82 m

Tämänhetkinen sää

Tämä raportti tehtiin 48 minuuttia sitten, kello 07.20 UTC
Tuuli 10 kn idästä/kaakosta
Lämpötila 9°C
Kosteus 71%
Ilmanpaine 1014 hPa
Näkyvyys 10 km tai enemmän
ei pilviä alle 1500 m:ssä eikä cumulonimbus-pilviä

METAR: EGTK 050720Z 12010KT CAVOK 09/04 Q1014

Aika: 09:08 (08:08 UTC)

Sääennuste

Tämä raportti tehtiin 2 tuntia ja 17 minuuttia sitten, kello 05.51 UTC
Ennuste voimassa 05. päivästä klo 06 UTC - 05. päivään klo 15 UTC
Tuuli 10 kn idästä/kaakosta
Näkyvyys 10 km tai enemmän
ei pilviä alle 1500 m:ssä eikä cumulonimbus-pilviä
Todennäköisyys 30% :
Ajoittain
05. päivästä klo 11 UTC - 05. päivään klo 15 UTC
Tuuli 15 kn etelästä/kaakosta puuskistuen 25 kn:hen

TAF: EGTK 050551Z 0506/0515 12010KT CAVOK PROB30 TEMPO 0511/0515 16015G25KT

Säähavainnot ja -ennusteet yli 4000 lentoasemalta (METAR- ja TAF-raportit).

Käytössä olevat sääasemat on merkitty karttaan keltaisilla ja punaisilla pisteillä.

Aseta hiiri pisteen päälle nähdäksesi sääaseman nimen.

Klikkaa sitten nähdäksesi säähavainnot ja -ennusteet.

Kartan vaihtaminen: klikkaa mustalla rastilla varustettuja vihreitä pisteitä, niin voit zoomata sisään; viivalla varustettua vihreää pistettä, niin voit zoomata ulos tai vihreitä nuolia, niin pääset viereisille kartoille.


METAR-TAF: